Aroya, Colorado
Current Conditions -  °F | °C
As of 11:55 PM on Thursday 27 Nov 2014 (Local Time) from KLIC Reporting Station
Clear Clear  
Wind Chill: 19°   Ceiling: Unl
Heat Index: 25°   Visibility: 10mi
Dew Point: 18°   Wind: 5mph
Humidity: 75%   Direction: 340°NNW
Pressure: 30.1"   Gusts: NA
Location:  38.8543°N, 103.125°W
Report Text: KLIC 280655Z AUTO 34004KT 10SM CLR M04/M08 A3010 RMK AO2 SLP169 T10391078 401941089
Loading
Personal Weather Stations






























Interactive Weather Map New forecast layout! Learn more

10-Day Weather Forecast

Advertisements
Track Severe Weather on mobile